Nearby METAR Reports

 

NZCH - Christchurch Int, New Zealand
Distance from station: W 10km
Updated: 25 Jun 2019 20:30
Patches of fog, Clear
Patches of fog, Clear
 Wind from NNW
Wind: NNW 2 km/h
Temperature: 1°C
Dew Point: 1°C
Humidity: 100%
Barometer: 1029 hPa
Summary: Patches of Fog
Clouds: Clear
Visibility: 3 km
2019/06/25 08:30 NZCH 250830Z AUTO 33001KT 2900 BCFG NCD 01/01 Q1029 BECMG 9999 NSW